Time;durP1;ratioP1;P1;durP2;ratioP2;P2;SDS_P1;SDS_P2;PMS_P1;PMS_P2;Temp;Humidity;BMP_temperature;BMP_pressure;BME280_temperature;BME280_humidity;BME280_pressure;Samples;Min_cycle;Max_cycle;Signal;HPM_P1;HPM_P2
2023/01/26 00:03:00;;;;;;;10.83;5.93;;;;;;;;;;10428478;28;20318;-80
2023/01/26 00:08:02;;;;;;;11.57;5.93;;;;;;;;;;10429221;28;20214;-80
2023/01/26 00:13:03;;;;;;;12.00;5.63;;;;;;;;;;10424521;28;20575;-79
2023/01/26 00:18:04;;;;;;;14.45;6.70;;;;;;;;;;10399304;28;20215;-78
2023/01/26 00:23:05;;;;;;;11.48;5.68;;;;;;;;;;10444742;28;20217;-81
2023/01/26 00:28:06;;;;;;;9.90;5.43;;;;;;;;;;10447028;28;20344;-81
2023/01/26 00:33:08;;;;;;;12.57;5.87;;;;;;;;;;10424165;28;20214;-81
2023/01/26 00:38:11;;;;;;;9.80;5.00;;;;;;;;;;10430593;28;20219;-80
2023/01/26 00:43:12;;;;;;;7.60;4.43;;;;;;;;;;10422961;28;20306;-80
2023/01/26 00:48:13;;;;;;;7.03;3.60;;;;;;;;;;10423383;28;20264;-77
2023/01/26 00:53:14;;;;;;;7.97;3.80;;;;;;;;;;10423912;28;20305;-80
2023/01/26 00:58:15;;;;;;;3.85;3.55;;;;;;;;;;10407520;28;20257;-80
2023/01/26 01:03:16;;;;;;;7.50;3.30;;;;;;;;;;10409431;28;20205;-78
2023/01/26 01:08:21;;;;;;;6.23;2.90;;;;;;;;;;10433817;28;20800;-80
2023/01/26 01:13:22;;;;;;;3.87;3.23;;;;;;;;;;10416785;28;20863;-79
2023/01/26 01:18:23;;;;;;;8.17;3.90;;;;;;;;;;10428677;28;20214;-79
2023/01/26 01:23:27;;;;;;;8.33;3.87;;;;;;;;;;10427558;28;20210;-81
2023/01/26 01:28:30;;;;;;;11.20;3.83;;;;;;;;;;10394877;28;20996;-80
2023/01/26 01:33:31;;;;;;;7.47;4.03;;;;;;;;;;10392457;28;20234;-79
2023/01/26 01:38:32;;;;;;;8.83;4.40;;;;;;;;;;10431570;28;20887;-80
2023/01/26 01:43:34;;;;;;;6.18;3.55;;;;;;;;;;10418593;28;20215;-79
2023/01/26 01:48:38;;;;;;;3.93;3.27;;;;;;;;;;10408778;28;21051;-80
2023/01/26 01:53:41;;;;;;;8.90;3.43;;;;;;;;;;10432569;28;20219;-78
2023/01/26 01:58:43;;;;;;;5.00;2.80;;;;;;;;;;10429403;28;20900;-79
2023/01/26 02:03:45;;;;;;;4.65;3.33;;;;;;;;;;10401857;28;20234;-78
2023/01/26 02:08:47;;;;;;;5.83;3.17;;;;;;;;;;10450844;28;20248;-80
2023/01/26 02:13:49;;;;;;;6.30;2.90;;;;;;;;;;10430724;28;20464;-81
2023/01/26 02:18:50;;;;;;;6.97;3.80;;;;;;;;;;10444885;28;20218;-80
2023/01/26 02:24:04;;;;;;;7.22;3.08;;;;;;;;;;10452134;28;20653;-79
2023/01/26 02:29:07;;;;;;;10.02;4.32;;;;;;;;;;10395024;28;20309;-80
2023/01/26 02:34:10;;;;;;;4.53;3.20;;;;;;;;;;10428277;28;20210;-80
2023/01/26 02:39:11;;;;;;;4.75;3.72;;;;;;;;;;10424347;28;20275;-80
2023/01/26 02:44:14;;;;;;;6.13;3.13;;;;;;;;;;10404710;28;20207;-77
2023/01/26 02:59:57;;;;;;;3.67;2.85;;;;;;;;;;10412652;28;20206;-80
2023/01/26 03:04:58;;;;;;;5.07;3.63;;;;;;;;;;10425748;28;20222;-80
2023/01/26 03:10:00;;;;;;;7.30;3.87;;;;;;;;;;10413182;28;20222;-80
2023/01/26 03:31:08;;;;;;;3.93;3.30;;;;;;;;;;10427464;28;20799;-81
2023/01/26 03:36:09;;;;;;;9.82;4.40;;;;;;;;;;10405344;28;21695;-80
2023/01/26 03:57:11;;;;;;;8.90;4.00;;;;;;;;;;10425541;28;20236;-79
2023/01/26 04:23:41;;;;;;;7.53;3.78;;;;;;;;;;10429218;28;20655;-79
2023/01/26 04:28:42;;;;;;;11.60;5.03;;;;;;;;;;10389574;28;20222;-79
2023/01/26 04:33:43;;;;;;;13.10;6.13;;;;;;;;;;10401670;28;20222;-80
2023/01/26 04:38:48;;;;;;;16.10;5.80;;;;;;;;;;10412472;28;20221;-81
2023/01/26 04:43:52;;;;;;;9.43;4.72;;;;;;;;;;10431903;28;20588;-79
2023/01/26 04:48:53;;;;;;;9.93;5.75;;;;;;;;;;10412483;28;20677;-81
2023/01/26 04:53:54;;;;;;;10.48;4.35;;;;;;;;;;10429128;28;20215;-80
2023/01/26 04:59:01;;;;;;;14.13;5.45;;;;;;;;;;10411914;28;20218;-78
2023/01/26 05:04:03;;;;;;;11.27;4.90;;;;;;;;;;10391301;28;20203;-79
2023/01/26 05:09:06;;;;;;;11.10;4.63;;;;;;;;;;10435985;28;20257;-80
2023/01/26 05:14:09;;;;;;;12.60;6.22;;;;;;;;;;10410818;28;20214;-79
2023/01/26 05:19:21;;;;;;;17.83;6.03;;;;;;;;;;10399518;28;20219;-80
2023/01/26 05:24:45;;;;;;;15.37;5.67;;;;;;;;;;10407029;28;20288;-81
2023/01/26 05:29:59;;;;;;;14.37;5.43;;;;;;;;;;10428570;28;20206;-81
2023/01/26 05:35:00;;;;;;;10.43;4.37;;;;;;;;;;10444631;28;20219;-82
2023/01/26 05:40:01;;;;;;;12.20;6.87;;;;;;;;;;10399120;28;20254;-82
2023/01/26 05:45:05;;;;;;;15.23;5.73;;;;;;;;;;10427490;28;20223;-82
2023/01/26 05:50:08;;;;;;;13.80;5.97;;;;;;;;;;10431163;28;20225;-81
2023/01/26 05:55:10;;;;;;;12.03;5.43;;;;;;;;;;10410137;28;20668;-81
2023/01/26 06:00:12;;;;;;;15.47;6.37;;;;;;;;;;10445806;28;20233;-79
2023/01/26 06:05:21;;;;;;;12.53;5.53;;;;;;;;;;10432040;28;20179;-81
2023/01/26 06:10:25;;;;;;;17.80;7.23;;;;;;;;;;10404345;28;20214;-81
2023/01/26 06:15:33;;;;;;;16.05;6.07;;;;;;;;;;10419037;28;20337;-79
2023/01/26 06:20:35;;;;;;;17.47;7.10;;;;;;;;;;10432720;28;20245;-80
2023/01/26 06:25:40;;;;;;;16.63;6.87;;;;;;;;;;10417076;28;20207;-81
2023/01/26 06:30:41;;;;;;;21.60;8.27;;;;;;;;;;10394279;28;20222;-79
2023/01/26 06:35:46;;;;;;;22.13;7.43;;;;;;;;;;10422086;28;20237;-78
2023/01/26 06:40:47;;;;;;;20.23;7.77;;;;;;;;;;10391663;28;20346;-80
2023/01/26 06:45:48;;;;;;;21.43;6.73;;;;;;;;;;10412126;28;20238;-78
2023/01/26 06:50:51;;;;;;;17.97;7.80;;;;;;;;;;10431721;28;20777;-78
2023/01/26 06:55:52;;;;;;;20.23;7.97;;;;;;;;;;10401939;28;20225;-83
2023/01/26 07:01:05;;;;;;;20.80;7.53;;;;;;;;;;10388117;28;20249;-81
2023/01/26 07:06:12;;;;;;;14.67;6.10;;;;;;;;;;10424204;28;20215;-82
2023/01/26 07:11:14;;;;;;;17.30;6.70;;;;;;;;;;10418078;28;20210;-82
2023/01/26 07:16:16;;;;;;;16.23;7.23;;;;;;;;;;10402230;28;20600;-79
2023/01/26 07:21:18;;;;;;;21.83;8.47;;;;;;;;;;10412917;28;20215;-80
2023/01/26 07:26:19;;;;;;;23.97;9.03;;;;;;;;;;10420561;28;20703;-79
2023/01/26 07:31:20;;;;;;;23.27;7.73;;;;;;;;;;10424873;28;20215;-80
2023/01/26 07:36:22;;;;;;;22.57;8.07;;;;;;;;;;10426384;28;20207;-81
2023/01/26 07:41:23;;;;;;;19.00;8.33;;;;;;;;;;10425055;28;20301;-80
2023/01/26 07:46:24;;;;;;;28.93;8.23;;;;;;;;;;10408967;28;20647;-80
2023/01/26 07:51:26;;;;;;;24.50;9.17;;;;;;;;;;10411632;28;20233;-79
2023/01/26 07:56:27;;;;;;;25.97;8.73;;;;;;;;;;10398327;28;20222;-81
2023/01/26 08:01:28;;;;;;;30.47;8.90;;;;;;;;;;10423714;28;20559;-78
2023/01/26 08:06:29;;;;;;;21.40;7.73;;;;;;;;;;10432989;28;20206;-81
2023/01/26 08:11:30;;;;;;;17.53;8.07;;;;;;;;;;10425950;28;20236;-77
2023/01/26 08:16:32;;;;;;;27.33;8.27;;;;;;;;;;10423771;28;20891;-78
2023/01/26 08:21:33;;;;;;;14.93;7.00;;;;;;;;;;10432164;28;20225;-78
2023/01/26 08:26:34;;;;;;;10.53;5.50;;;;;;;;;;10394036;28;20210;-82
2023/01/26 08:31:35;;;;;;;13.17;5.80;;;;;;;;;;10429069;28;20760;-81
2023/01/26 08:36:38;;;;;;;9.07;5.23;;;;;;;;;;10422218;28;20210;-78
2023/01/26 08:41:39;;;;;;;17.23;6.20;;;;;;;;;;10405811;28;20744;-81
2023/01/26 08:46:40;;;;;;;10.57;5.27;;;;;;;;;;10401456;28;20210;-80
2023/01/26 08:51:41;;;;;;;16.30;6.07;;;;;;;;;;10417694;28;20218;-77
2023/01/26 08:56:42;;;;;;;18.90;7.37;;;;;;;;;;10421858;28;20314;-78
2023/01/26 09:01:43;;;;;;;15.63;6.60;;;;;;;;;;10424475;28;20226;-78
2023/01/26 09:06:44;;;;;;;16.77;6.30;;;;;;;;;;10406117;28;20219;-78
2023/01/26 09:11:46;;;;;;;16.37;7.30;;;;;;;;;;10430310;28;20245;-80
2023/01/26 09:16:47;;;;;;;15.73;7.23;;;;;;;;;;10430009;28;20695;-80
2023/01/26 09:21:51;;;;;;;18.37;5.37;;;;;;;;;;10422245;28;20227;-79
2023/01/26 09:26:52;;;;;;;14.97;6.70;;;;;;;;;;10425811;28;20889;-79
2023/01/26 09:31:54;;;;;;;14.20;4.67;;;;;;;;;;10429324;28;20218;-76
2023/01/26 09:36:55;;;;;;;12.60;4.10;;;;;;;;;;10422354;28;20212;-79
2023/01/26 09:42:16;;;;;;;6.57;3.45;;;;;;;;;;10428892;28;20222;-79
2023/01/26 09:47:25;;;;;;;5.25;2.92;;;;;;;;;;10412886;28;20221;-81
2023/01/26 09:52:35;;;;;;;10.20;3.75;;;;;;;;;;10406397;28;20207;-78
2023/01/26 09:57:37;;;;;;;6.50;3.47;;;;;;;;;;10425860;28;20830;-79
2023/01/26 10:03:01;;;;;;;10.85;4.32;;;;;;;;;;10408460;28;20305;-78
2023/01/26 10:08:04;;;;;;;6.93;4.05;;;;;;;;;;10394595;28;20226;-81
2023/01/26 10:13:05;;;;;;;12.60;3.95;;;;;;;;;;10428444;28;20746;-80
2023/01/26 10:18:08;;;;;;;5.35;3.33;;;;;;;;;;10425720;28;20215;-79
2023/01/26 10:23:13;;;;;;;14.45;4.30;;;;;;;;;;10424603;28;21019;-81
2023/01/26 10:28:15;;;;;;;10.30;4.15;;;;;;;;;;10426539;28;20214;-80
2023/01/26 10:33:46;;;;;;;9.93;4.68;;;;;;;;;;10426920;28;20713;-80
2023/01/26 10:38:48;;;;;;;9.35;3.45;;;;;;;;;;10405109;28;20223;-80
2023/01/26 10:43:54;;;;;;;8.10;3.90;;;;;;;;;;10406603;28;20202;-81
2023/01/26 10:48:56;;;;;;;10.60;3.65;;;;;;;;;;10423598;28;20862;-81
2023/01/26 10:54:16;;;;;;;4.10;3.30;;;;;;;;;;10408557;28;20272;-79
2023/01/26 10:59:37;;;;;;;7.45;3.58;;;;;;;;;;10414985;28;20218;-80
2023/01/26 11:04:39;;;;;;;9.23;3.92;;;;;;;;;;10427171;28;20736;-80
2023/01/26 11:09:40;;;;;;;12.23;4.95;;;;;;;;;;10422186;28;20269;-80
2023/01/26 11:21:05;;;;;;;6.60;4.13;;;;;;;;;;10418795;28;20222;-78
2023/01/26 11:26:21;;;;;;;8.32;3.00;;;;;;;;;;10391552;28;20309;-80
2023/01/26 11:31:41;;;;;;;10.23;4.72;;;;;;;;;;10431637;28;20304;-79
2023/01/26 11:36:55;;;;;;;12.68;4.30;;;;;;;;;;10421099;28;20251;-79
2023/01/26 11:41:57;;;;;;;9.45;4.45;;;;;;;;;;10449084;28;20230;-80
2023/01/26 11:47:05;;;;;;;8.10;4.07;;;;;;;;;;10410901;28;20206;-79
2023/01/26 11:52:15;;;;;;;11.13;4.53;;;;;;;;;;10415550;28;20222;-80
2023/01/26 11:57:22;;;;;;;10.15;5.38;;;;;;;;;;10430504;28;20313;-79
2023/01/26 12:02:31;;;;;;;11.57;4.00;;;;;;;;;;10422603;28;20708;-82
2023/01/26 12:07:50;;;;;;;6.50;3.90;;;;;;;;;;10432454;28;20237;-80
2023/01/26 12:12:59;;;;;;;11.48;3.75;;;;;;;;;;10430812;28;20210;-80
2023/01/26 12:18:05;;;;;;;8.15;3.85;;;;;;;;;;10441094;28;20309;-79
2023/01/26 12:23:09;;;;;;;7.22;3.97;;;;;;;;;;10430244;28;20226;-82
2023/01/26 12:28:21;;;;;;;9.25;3.97;;;;;;;;;;10417023;28;20215;-80
2023/01/26 12:33:22;;;;;;;12.55;4.28;;;;;;;;;;10425320;28;20215;-82
2023/01/26 12:38:56;;;;;;;10.30;4.57;;;;;;;;;;10394878;28;20219;-80
2023/01/26 12:44:08;;;;;;;9.73;4.00;;;;;;;;;;10381640;28;20244;-80
2023/01/26 12:49:14;;;;;;;8.88;3.63;;;;;;;;;;10427942;28;20219;-82
2023/01/26 12:54:26;;;;;;;7.80;4.35;;;;;;;;;;10429849;28;20225;-80
2023/01/26 12:59:34;;;;;;;13.40;5.07;;;;;;;;;;10442297;28;21000;-83
2023/01/26 13:04:36;;;;;;;10.90;4.93;;;;;;;;;;10431212;28;20948;-82
2023/01/26 13:09:37;;;;;;;8.10;3.80;;;;;;;;;;10422090;28;20252;-81
2023/01/26 13:14:58;;;;;;;11.30;4.32;;;;;;;;;;10422504;28;20211;-82
2023/01/26 13:20:14;;;;;;;6.68;3.85;;;;;;;;;;10433020;28;20826;-81
2023/01/26 13:25:19;;;;;;;9.43;4.10;;;;;;;;;;10403137;28;20440;-81
2023/01/26 13:30:23;;;;;;;5.85;3.83;;;;;;;;;;10433672;28;20207;-82
2023/01/26 13:35:26;;;;;;;11.15;4.35;;;;;;;;;;10429100;28;20218;-82
2023/01/26 13:40:31;;;;;;;11.45;4.18;;;;;;;;;;10436064;28;20226;-81
2023/01/26 13:45:42;;;;;;;18.85;5.45;;;;;;;;;;10436190;28;20214;-82
2023/01/26 13:50:45;;;;;;;10.95;5.15;;;;;;;;;;10428190;28;20280;-82
2023/01/26 13:55:51;;;;;;;11.88;4.07;;;;;;;;;;10423913;28;20265;-82
2023/01/26 14:00:59;;;;;;;8.75;4.53;;;;;;;;;;10424389;28;20249;-81
2023/01/26 14:06:03;;;;;;;7.70;4.80;;;;;;;;;;10407049;28;20215;-81
2023/01/26 14:11:14;;;;;;;14.70;5.32;;;;;;;;;;10431943;28;20306;-79
2023/01/26 14:16:22;;;;;;;17.38;6.70;;;;;;;;;;10431808;28;20946;-79
2023/01/26 14:21:24;;;;;;;18.08;6.25;;;;;;;;;;10423472;28;20227;-82
2023/01/26 14:26:29;;;;;;;17.90;7.70;;;;;;;;;;10418017;28;20736;-80
2023/01/26 14:31:31;;;;;;;20.15;6.50;;;;;;;;;;10434193;28;20222;-82
2023/01/26 14:36:35;;;;;;;14.05;6.93;;;;;;;;;;10439654;28;20289;-82
2023/01/26 14:41:37;;;;;;;19.27;7.95;;;;;;;;;;10411108;28;20603;-82
2023/01/26 14:46:38;;;;;;;21.52;7.10;;;;;;;;;;10431497;28;20984;-82
2023/01/26 14:51:40;;;;;;;28.23;9.02;;;;;;;;;;10398440;28;20254;-81
2023/01/26 14:56:45;;;;;;;23.13;8.52;;;;;;;;;;10405920;28;20203;-82
2023/01/26 15:01:46;;;;;;;24.55;8.15;;;;;;;;;;10420675;28;20671;-81
2023/01/26 15:06:47;;;;;;;22.17;8.23;;;;;;;;;;10426125;28;20729;-82
2023/01/26 15:17:26;;;;;;;24.50;8.75;;;;;;;;;;10465669;28;20237;-80
2023/01/26 15:22:27;;;;;;;30.52;10.48;;;;;;;;;;10443790;28;20252;-81
2023/01/26 15:27:32;;;;;;;26.50;9.65;;;;;;;;;;10459108;28;20222;-80
2023/01/26 15:32:39;;;;;;;37.08;11.38;;;;;;;;;;10411953;28;20213;-81
2023/01/26 15:37:40;;;;;;;25.67;9.55;;;;;;;;;;10417043;28;20744;-82
2023/01/26 15:42:41;;;;;;;26.00;9.73;;;;;;;;;;10406530;28;20199;-83
2023/01/26 15:47:43;;;;;;;34.70;11.55;;;;;;;;;;10432147;28;20708;-80
2023/01/26 15:52:44;;;;;;;28.95;10.13;;;;;;;;;;10435228;28;20430;-83
2023/01/26 15:57:45;;;;;;;21.13;7.07;;;;;;;;;;10421318;28;20218;-83
2023/01/26 16:02:46;;;;;;;23.60;9.13;;;;;;;;;;10440155;28;21572;-82
2023/01/26 16:07:47;;;;;;;34.28;9.93;;;;;;;;;;10436942;28;20809;-84
2023/01/26 16:12:49;;;;;;;23.77;8.55;;;;;;;;;;10438705;28;20207;-85
2023/01/26 16:17:50;;;;;;;19.80;7.78;;;;;;;;;;10446069;28;20364;-84
2023/01/26 16:22:51;;;;;;;23.40;8.57;;;;;;;;;;10433268;28;20252;-83
2023/01/26 16:27:53;;;;;;;23.80;8.57;;;;;;;;;;10437380;28;20224;-83
2023/01/26 16:32:56;;;;;;;20.90;7.82;;;;;;;;;;10414517;28;20833;-82
2023/01/26 16:37:58;;;;;;;29.27;9.32;;;;;;;;;;10439557;28;20580;-82
2023/01/26 16:42:59;;;;;;;34.55;10.50;;;;;;;;;;10421708;28;20226;-81
2023/01/26 16:48:00;;;;;;;23.75;9.68;;;;;;;;;;10443495;28;20222;-81
2023/01/26 16:53:06;;;;;;;23.17;8.43;;;;;;;;;;10415984;28;20301;-83
2023/01/26 16:58:07;;;;;;;32.42;9.02;;;;;;;;;;10438477;28;20214;-80
2023/01/26 17:03:11;;;;;;;37.08;7.88;;;;;;;;;;10391030;28;20271;-80
2023/01/26 17:08:12;;;;;;;24.52;9.52;;;;;;;;;;10420351;28;20218;-81
2023/01/26 17:13:14;;;;;;;26.20;7.80;;;;;;;;;;10436443;28;20262;-83
2023/01/26 17:18:15;;;;;;;24.02;7.88;;;;;;;;;;10437895;28;20253;-84
2023/01/26 17:23:16;;;;;;;22.95;7.15;;;;;;;;;;10423763;28;20213;-82
2023/01/26 17:28:17;;;;;;;19.40;6.85;;;;;;;;;;10440391;28;20222;-82
2023/01/26 17:33:19;;;;;;;20.33;6.72;;;;;;;;;;10434575;28;20222;-83
2023/01/26 17:38:20;;;;;;;16.02;7.00;;;;;;;;;;10435297;28;20233;-83
2023/01/26 17:43:21;;;;;;;19.80;6.97;;;;;;;;;;10395182;28;20202;-82
2023/01/26 17:48:22;;;;;;;28.00;8.48;;;;;;;;;;10438638;28;20250;-84
2023/01/26 17:53:23;;;;;;;26.80;7.75;;;;;;;;;;10417055;28;20253;-83
2023/01/26 17:58:24;;;;;;;21.70;6.68;;;;;;;;;;10422663;28;20229;-82
2023/01/26 18:03:25;;;;;;;23.10;7.82;;;;;;;;;;10438737;28;20321;-83
2023/01/26 18:08:27;;;;;;;29.38;7.07;;;;;;;;;;10438360;28;20834;-81
2023/01/26 18:13:28;;;;;;;16.90;5.75;;;;;;;;;;10436783;28;20226;-84
2023/01/26 18:18:29;;;;;;;19.75;6.88;;;;;;;;;;10442955;28;20225;-82
2023/01/26 18:23:30;;;;;;;17.30;6.75;;;;;;;;;;10424759;28;20238;-85
2023/01/26 18:28:32;;;;;;;23.48;7.75;;;;;;;;;;10408989;28;20584;-84
2023/01/26 18:33:33;;;;;;;17.05;6.40;;;;;;;;;;10415307;28;20206;-83
2023/01/26 18:38:34;;;;;;;27.02;8.20;;;;;;;;;;10403705;28;20219;-85
2023/01/26 18:43:35;;;;;;;21.33;7.00;;;;;;;;;;10400559;28;20216;-85
2023/01/26 18:48:36;;;;;;;28.13;7.80;;;;;;;;;;10416702;28;20731;-86
2023/01/26 18:53:38;;;;;;;22.40;8.73;;;;;;;;;;10414332;28;20696;-85
2023/01/26 18:58:39;;;;;;;24.40;9.18;;;;;;;;;;10397300;28;20218;-85
2023/01/26 19:03:46;;;;;;;30.20;10.45;;;;;;;;;;10396266;28;20233;-84
2023/01/26 19:08:57;;;;;;;29.58;8.88;;;;;;;;;;10395262;28;20311;-85
2023/01/26 19:14:00;;;;;;;27.60;10.75;;;;;;;;;;10417112;28;20705;-86
2023/01/26 19:19:01;;;;;;;21.75;7.78;;;;;;;;;;10414186;28;20310;-82
2023/01/26 19:24:04;;;;;;;27.63;7.57;;;;;;;;;;10409185;28;20301;-83
2023/01/26 19:29:06;;;;;;;18.30;7.75;;;;;;;;;;10419453;28;20222;-81
2023/01/26 19:34:11;;;;;;;21.85;6.70;;;;;;;;;;10402563;28;20250;-81
2023/01/26 19:39:12;;;;;;;16.38;6.07;;;;;;;;;;10421796;28;20276;-81
2023/01/26 19:44:14;;;;;;;22.65;6.75;;;;;;;;;;10436598;28;20944;-81
2023/01/26 19:49:16;;;;;;;20.50;7.05;;;;;;;;;;10402258;28;20249;-82
2023/01/26 19:54:17;;;;;;;21.35;7.35;;;;;;;;;;10421443;28;20223;-84
2023/01/26 19:59:18;;;;;;;16.63;5.88;;;;;;;;;;10377808;28;20237;-81
2023/01/26 20:04:19;;;;;;;16.13;6.65;;;;;;;;;;10379215;28;20219;-82
2023/01/26 20:09:20;;;;;;;18.35;5.63;;;;;;;;;;10417079;28;20752;-83
2023/01/26 20:14:21;;;;;;;18.15;6.25;;;;;;;;;;10404420;28;20217;-83
2023/01/26 20:19:23;;;;;;;16.77;5.75;;;;;;;;;;10420510;28;20234;-82
2023/01/26 20:24:25;;;;;;;15.32;5.90;;;;;;;;;;10418732;28;20410;-81
2023/01/26 20:29:26;;;;;;;15.57;6.55;;;;;;;;;;10423022;28;20217;-83
2023/01/26 20:34:27;;;;;;;12.23;5.78;;;;;;;;;;10401159;28;20221;-83
2023/01/26 20:39:28;;;;;;;19.30;7.60;;;;;;;;;;10416626;28;20218;-81
2023/01/26 20:44:30;;;;;;;15.82;5.80;;;;;;;;;;10419163;28;20621;-82
2023/01/26 20:49:31;;;;;;;20.15;6.53;;;;;;;;;;10379686;28;20633;-82
2023/01/26 20:54:32;;;;;;;16.88;5.65;;;;;;;;;;10401757;28;20329;-79
2023/01/26 20:59:33;;;;;;;15.50;6.00;;;;;;;;;;10428024;28;20210;-84
2023/01/26 21:04:35;;;;;;;13.13;5.28;;;;;;;;;;10395644;28;20588;-82
2023/01/26 21:09:36;;;;;;;18.83;7.10;;;;;;;;;;10421204;28;20276;-81
2023/01/26 21:14:37;;;;;;;12.73;4.97;;;;;;;;;;10422952;28;20296;-82
2023/01/26 21:19:38;;;;;;;11.68;5.07;;;;;;;;;;10428734;28;20225;-80
2023/01/26 21:24:39;;;;;;;10.32;4.30;;;;;;;;;;10439040;28;20563;-83
2023/01/26 21:29:41;;;;;;;10.65;4.97;;;;;;;;;;10407114;28;20238;-82
2023/01/26 21:34:42;;;;;;;12.90;5.15;;;;;;;;;;10421135;28;20711;-81
2023/01/26 21:39:43;;;;;;;12.45;5.13;;;;;;;;;;10454685;28;23359;-83
2023/01/26 21:50:04;;;;;;;7.93;3.38;;;;;;;;;;10460861;28;20333;-83
2023/01/26 21:55:05;;;;;;;7.97;4.43;;;;;;;;;;10437281;28;20182;-83
2023/01/26 22:00:07;;;;;;;5.53;3.42;;;;;;;;;;10452985;28;20475;-83
2023/01/26 22:05:08;;;;;;;9.35;4.60;;;;;;;;;;10423120;28;20189;-82
2023/01/26 22:10:10;;;;;;;9.50;3.92;;;;;;;;;;10444593;28;20219;-83
2023/01/26 22:15:11;;;;;;;7.85;4.00;;;;;;;;;;10397382;28;20179;-82
2023/01/26 22:20:12;;;;;;;9.43;4.35;;;;;;;;;;10433401;28;20854;-82
2023/01/26 22:25:14;;;;;;;8.40;3.53;;;;;;;;;;10436640;28;20240;-82
2023/01/26 22:30:15;;;;;;;10.00;4.35;;;;;;;;;;10438177;28;20226;-81
2023/01/26 22:35:19;;;;;;;11.80;3.60;;;;;;;;;;10422510;28;20445;-82
2023/01/26 22:40:20;;;;;;;7.28;3.30;;;;;;;;;;10449740;28;20294;-81
2023/01/26 22:45:21;;;;;;;5.85;3.55;;;;;;;;;;10469520;28;20190;-82
2023/01/26 22:50:22;;;;;;;6.00;3.25;;;;;;;;;;10472011;28;20226;-82
2023/01/26 22:55:23;;;;;;;10.32;4.15;;;;;;;;;;10456744;28;20218;-80
2023/01/26 23:00:25;;;;;;;5.90;3.92;;;;;;;;;;10433673;28;20599;-81
2023/01/26 23:05:26;;;;;;;6.72;3.10;;;;;;;;;;10432975;28;20219;-81
2023/01/26 23:10:27;;;;;;;7.60;3.78;;;;;;;;;;10420175;28;20227;-81
2023/01/26 23:15:29;;;;;;;5.72;3.20;;;;;;;;;;10436343;28;20276;-82
2023/01/26 23:20:30;;;;;;;8.85;2.80;;;;;;;;;;10404381;28;20297;-82
2023/01/26 23:25:49;;;;;;;5.22;2.92;;;;;;;;;;10436809;28;20256;-82
2023/01/26 23:30:51;;;;;;;4.70;2.83;;;;;;;;;;10430781;28;20267;-82
2023/01/26 23:35:52;;;;;;;6.28;2.85;;;;;;;;;;10434291;28;20309;-81
2023/01/26 23:40:54;;;;;;;4.10;3.20;;;;;;;;;;10431629;28;20293;-82
2023/01/26 23:45:55;;;;;;;6.45;2.47;;;;;;;;;;10428911;28;20214;-82
2023/01/26 23:50:57;;;;;;;2.72;2.53;;;;;;;;;;10409001;28;20218;-80
2023/01/26 23:55:59;;;;;;;2.42;2.22;;;;;;;;;;10417764;28;21241;-81
